createdAt,value
2023-02-01T00:00:48.387Z,99759.56
2023-02-01T00:05:58.261Z,99763.63
2023-02-01T00:11:01.824Z,99765.41
2023-02-01T00:16:18.185Z,99762.94
2023-02-01T00:21:21.596Z,99765.50
2023-02-01T00:26:42.829Z,99764.59
2023-02-01T00:31:45.589Z,99761.22
2023-02-01T00:36:47.723Z,99765.53
2023-02-01T00:41:49.459Z,99760.41
2023-02-01T00:46:51.198Z,99768.88
2023-02-01T00:51:52.993Z,99757.56
2023-02-01T00:56:54.760Z,99764.66
2023-02-01T01:01:56.458Z,99767.16
2023-02-01T01:06:58.736Z,99771.59
2023-02-01T01:12:03.652Z,99772.44
2023-02-01T01:17:06.579Z,99764.69
2023-02-01T01:22:08.256Z,99763.78
2023-02-01T01:27:10.021Z,99764.72
2023-02-01T01:32:11.645Z,99764.75
2023-02-01T01:37:13.271Z,99753.69
2023-02-01T01:42:15.198Z,99752.53
2023-02-01T01:47:17.474Z,99752.69
2023-02-01T01:52:19.933Z,99744.91
2023-02-01T01:57:30.553Z,99735.38
2023-02-01T02:02:32.733Z,99745.72
2023-02-01T02:07:38.491Z,99739.66
2023-02-01T02:12:42.813Z,99736.16
2023-02-01T02:18:19.216Z,99732.75
2023-02-01T02:23:39.600Z,99721.38
2023-02-01T02:28:50.264Z,99727.50
2023-02-01T02:34:18.936Z,99727.47
2023-02-01T02:39:48.028Z,99723.91
2023-02-01T02:45:38.125Z,99708.53
2023-02-01T02:51:06.037Z,99708.53
2023-02-01T02:56:30.077Z,99717.13
2023-02-01T03:01:52.007Z,99724.16
2023-02-01T03:06:54.795Z,99719.81
2023-02-01T03:12:21.717Z,99728.50
2023-02-01T03:17:31.524Z,99736.31
2023-02-01T03:22:36.245Z,99728.50
2023-02-01T03:27:53.073Z,99732.03
2023-02-01T03:33:00.384Z,99715.63
2023-02-01T03:38:41.924Z,99707.63
2023-02-01T03:43:51.485Z,99717.13
2023-02-01T03:48:55.220Z,99705.09
2023-02-01T03:53:58.157Z,99712.78
2023-02-01T03:59:00.139Z,99705.91
2023-02-01T04:04:06.331Z,99693.63
2023-02-01T04:09:08.830Z,99690.25
2023-02-01T04:14:10.722Z,99691.03
2023-02-01T04:19:12.541Z,99684.06
2023-02-01T04:24:14.266Z,99689.22
2023-02-01T04:29:16.005Z,99672.75
2023-02-01T04:34:17.730Z,99683.16
2023-02-01T04:39:19.492Z,99674.50
2023-02-01T04:44:21.458Z,99671.00
2023-02-01T04:49:23.126Z,99664.16
2023-02-01T04:54:24.765Z,99656.28
2023-02-01T04:59:27.580Z,99646.09
2023-02-01T05:04:29.379Z,99628.63
2023-02-01T05:09:31.034Z,99617.34
2023-02-01T05:14:32.713Z,99610.56
2023-02-01T05:19:34.429Z,99603.44
2023-02-01T05:24:36.196Z,99602.63
2023-02-01T05:29:38.071Z,99590.59
2023-02-01T05:34:40.266Z,99592.34
2023-02-01T05:39:42.046Z,99600.84
2023-02-01T05:44:43.788Z,99590.50
2023-02-01T05:49:45.472Z,99594.78
2023-02-01T05:54:48.274Z,99609.53
2023-02-01T05:59:49.975Z,99605.16
2023-02-01T06:04:52.415Z,99602.41
2023-02-01T06:09:54.030Z,99599.00
2023-02-01T06:14:55.684Z,99608.53
2023-02-01T06:19:57.452Z,99598.22
2023-02-01T06:24:59.970Z,99586.91
2023-02-01T06:30:01.621Z,99594.72
2023-02-01T06:35:04.187Z,99598.94
2023-02-01T06:40:06.487Z,99600.81
2023-02-01T06:45:08.826Z,99596.41
2023-02-01T06:50:11.031Z,99597.47
2023-02-01T06:55:12.897Z,99586.19
2023-02-01T07:00:15.069Z,99580.09
2023-02-01T07:05:17.586Z,99566.13
2023-02-01T07:10:19.467Z,99574.81
2023-02-01T07:15:21.076Z,99565.44
2023-02-01T07:20:23.623Z,99570.72
2023-02-01T07:25:25.592Z,99572.72
2023-02-01T07:30:27.374Z,99560.81
2023-02-01T07:35:29.946Z,99549.63
2023-02-01T07:40:31.664Z,99542.00
2023-02-01T07:45:35.235Z,99544.56
2023-02-01T07:50:38.575Z,99544.47
2023-02-01T07:55:41.191Z,99538.34
2023-02-01T08:01:01.467Z,99534.78
2023-02-01T08:06:03.581Z,99529.34
2023-02-01T08:11:07.152Z,99524.16
2023-02-01T08:16:10.879Z,99538.06
2023-02-01T08:21:15.165Z,99535.53
2023-02-01T08:26:24.300Z,99511.41
2023-02-01T08:31:28.383Z,99514.03
2023-02-01T08:36:31.542Z,99488.78
2023-02-01T08:41:33.307Z,99495.47
2023-02-01T08:46:35.063Z,99490.00
2023-02-01T08:51:36.725Z,99499.34
2023-02-01T08:56:38.453Z,99489.53
2023-02-01T09:01:40.350Z,99485.03
2023-02-01T09:06:42.352Z,99474.44
2023-02-01T09:11:44.043Z,99478.00
2023-02-01T09:16:45.715Z,99480.66
2023-02-01T09:21:47.465Z,99505.81
2023-02-01T09:26:49.420Z,99504.31
2023-02-01T09:32:02.832Z,99509.00
2023-02-01T09:37:05.404Z,99497.03
2023-02-01T09:42:21.072Z,99498.81
2023-02-01T09:47:25.216Z,99520.75
2023-02-01T09:52:39.908Z,99533.34
2023-02-01T09:57:49.198Z,99538.88
2023-02-01T10:02:51.731Z,99534.72
2023-02-01T10:08:19.223Z,99546.00
2023-02-01T10:13:42.594Z,99548.69
2023-02-01T10:18:51.499Z,99556.44
2023-02-01T10:24:16.821Z,99545.06
2023-02-01T10:29:21.644Z,99550.19
2023-02-01T10:34:31.046Z,99560.44
2023-02-01T10:39:32.772Z,99557.78
2023-02-01T10:44:41.565Z,99559.38
2023-02-01T10:50:16.647Z,99565.34
2023-02-01T10:55:28.641Z,99558.13
2023-02-01T11:00:44.362Z,99570.78
2023-02-01T11:05:48.831Z,99573.19
2023-02-01T11:11:02.856Z,99582.47
2023-02-01T11:16:05.865Z,99580.69
2023-02-01T11:21:10.164Z,99566.75
2023-02-01T11:26:26.634Z,99563.91
2023-02-01T11:31:29.389Z,99571.56
2023-02-01T11:36:33.756Z,99554.88
2023-02-01T11:41:41.206Z,99552.22
2023-02-01T11:46:43.047Z,99533.16
2023-02-01T11:51:56.124Z,99553.81
2023-02-01T11:57:19.425Z,99527.03
2023-02-01T12:02:26.977Z,99522.97
2023-02-01T12:07:47.831Z,99528.06
2023-02-01T12:12:49.505Z,99520.78
2023-02-01T12:18:07.621Z,99522.28
2023-02-01T12:23:21.028Z,99511.06
2023-02-01T12:29:01.286Z,99509.47
2023-02-01T12:34:02.878Z,99509.22
2023-02-01T12:39:10.423Z,99515.59
2023-02-01T12:44:18.093Z,99510.88
2023-02-01T12:49:28.490Z,99523.09
2023-02-01T12:54:43.655Z,99505.75
2023-02-01T13:00:03.588Z,99508.97
2023-02-01T13:05:18.313Z,99493.06
2023-02-01T13:10:31.533Z,99502.53
2023-02-01T13:15:40.088Z,99492.97
2023-02-01T13:21:08.133Z,99494.56
2023-02-01T13:26:09.885Z,99495.44
2023-02-01T13:31:21.021Z,99483.97
2023-02-01T13:36:45.740Z,99478.66
2023-02-01T13:42:00.938Z,99474.16
2023-02-01T13:47:11.411Z,99466.03
2023-02-01T13:52:41.738Z,99460.16
2023-02-01T13:57:45.975Z,99449.84
2023-02-01T14:02:50.942Z,99446.56
2023-02-01T14:08:10.789Z,99457.50
2023-02-01T14:13:37.157Z,99461.09
2023-02-01T14:18:38.875Z,99459.53
2023-02-01T14:23:43.848Z,99443.69
2023-02-01T14:29:18.638Z,99444.66
2023-02-01T14:34:25.831Z,99436.78
2023-02-01T14:39:38.769Z,99438.63
2023-02-01T14:44:40.661Z,99436.97
2023-02-01T14:50:13.445Z,99432.75
2023-02-01T14:55:36.953Z,99436.50
2023-02-01T15:00:38.746Z,99434.66
2023-02-01T15:05:40.598Z,99438.41
2023-02-01T15:10:46.441Z,99423.66
2023-02-01T15:16:02.533Z,99427.88
2023-02-01T15:21:26.383Z,99412.31
2023-02-01T15:26:30.612Z,99396.28
2023-02-01T15:31:42.239Z,99380.28
2023-02-01T15:37:00.370Z,99375.91
2023-02-01T15:42:16.656Z,99354.00
2023-02-01T15:47:21.483Z,99350.56
2023-02-01T15:52:42.494Z,99335.59
2023-02-01T15:57:44.871Z,99344.13
2023-02-01T16:03:02.034Z,99352.69
2023-02-01T16:08:22.875Z,99348.22
2023-02-01T16:13:24.618Z,99322.00
2023-02-01T16:18:26.372Z,99311.94
2023-02-01T16:23:31.456Z,99291.09
2023-02-01T16:28:34.355Z,99291.19
2023-02-01T16:33:36.712Z,99285.44
2023-02-01T16:38:38.416Z,99301.13
2023-02-01T16:43:40.338Z,99334.34
2023-02-01T16:48:43.784Z,99344.06
2023-02-01T16:53:54.243Z,99328.47
2023-02-01T16:58:57.331Z,99377.75
2023-02-01T17:03:59.139Z,99463.78
2023-02-01T17:09:03.227Z,99492.91
2023-02-01T17:14:19.444Z,99417.22
2023-02-01T17:19:24.383Z,99366.38
2023-02-01T17:24:42.361Z,99393.13
2023-02-01T17:29:49.190Z,99406.78
2023-02-01T17:34:50.911Z,99407.56
2023-02-01T17:39:55.429Z,99422.25
2023-02-01T17:45:01.058Z,99433.47
2023-02-01T17:50:02.994Z,99451.59
2023-02-01T17:55:18.070Z,99450.63
2023-02-01T18:00:20.675Z,99457.47
2023-02-01T18:05:27.281Z,99467.72
2023-02-01T18:10:29.037Z,99472.88
2023-02-01T18:15:31.932Z,99475.50
2023-02-01T18:20:36.394Z,99483.41
2023-02-01T18:25:38.712Z,99489.28
2023-02-01T18:30:40.747Z,99476.25
2023-02-01T18:35:43.198Z,99475.44
2023-02-01T18:40:53.441Z,99477.25
2023-02-01T18:45:55.615Z,99485.94
2023-02-01T18:50:57.884Z,99487.63
2023-02-01T18:56:00.053Z,99474.59
2023-02-01T19:01:07.368Z,99478.06
2023-02-01T19:06:09.605Z,99462.50
2023-02-01T19:11:11.328Z,99465.97
2023-02-01T19:16:13.805Z,99479.72
2023-02-01T19:21:15.586Z,99479.81
2023-02-01T19:26:18.474Z,99471.97
2023-02-01T19:31:20.321Z,99477.91
2023-02-01T19:36:22.085Z,99484.78
2023-02-01T19:41:23.894Z,99483.00
2023-02-01T19:46:26.109Z,99490.72
2023-02-01T19:51:27.777Z,99496.78
2023-02-01T19:56:29.540Z,99493.38
2023-02-01T20:01:32.028Z,99485.38
2023-02-01T20:06:38.327Z,99491.50
2023-02-01T20:11:40.433Z,99515.69
2023-02-01T20:16:42.632Z,99505.34
2023-02-01T20:21:44.714Z,99515.59
2023-02-01T20:26:49.087Z,99526.00
2023-02-01T20:31:51.567Z,99539.81
2023-02-01T20:36:53.390Z,99560.84
2023-02-01T20:41:55.827Z,99555.69
2023-02-01T20:46:58.775Z,99556.63
2023-02-01T20:52:00.488Z,99555.75
2023-02-01T20:57:02.514Z,99548.81
2023-02-01T21:02:04.565Z,99545.22
2023-02-01T21:07:06.269Z,99548.69
2023-02-01T21:12:07.970Z,99547.91
2023-02-01T21:17:09.704Z,99553.81
2023-02-01T21:22:12.595Z,99545.22
2023-02-01T21:27:14.708Z,99548.59
2023-02-01T21:32:16.390Z,99556.41
2023-02-01T21:37:18.485Z,99546.97
2023-02-01T21:42:21.979Z,99559.94
2023-02-01T21:47:25.908Z,99566.00
2023-02-01T21:52:28.440Z,99561.66
2023-02-01T21:57:30.272Z,99570.28
2023-02-01T22:02:31.988Z,99571.13
2023-02-01T22:07:36.039Z,99562.53
2023-02-01T22:12:37.729Z,99570.34
2023-02-01T22:17:39.427Z,99568.63
2023-02-01T22:22:41.371Z,99563.44
2023-02-01T22:28:32.463Z,99560.88
2023-02-01T22:33:04.744Z,99561.66
2023-02-01T22:38:06.380Z,99584.94
2023-02-01T22:43:08.099Z,99571.06
2023-02-01T22:48:09.858Z,99576.19
2023-02-01T22:53:12.020Z,99573.59
2023-02-01T22:58:13.739Z,99568.41
2023-02-01T23:03:15.463Z,99565.00
2023-02-01T23:08:17.147Z,99573.63
2023-02-01T23:13:18.777Z,99569.31
2023-02-01T23:18:20.507Z,99553.66
2023-02-01T23:23:22.207Z,99566.81
2023-02-01T23:28:23.912Z,99547.78
2023-02-01T23:33:26.965Z,99565.00
2023-02-01T23:38:29.245Z,99571.13
2023-02-01T23:43:50.117Z,99580.75
2023-02-01T23:48:52.394Z,99579.75
2023-02-01T23:53:55.538Z,99589.19
2023-02-01T23:58:57.157Z,99581.50
